South Lincoln, Vermont
Current Conditions -  °F | °C
As of 11:15 AM on Monday 24 Nov 2014 (Local Time) from K6B0 Reporting Station
Overcast Overcast  
Wind Chill: 61°   Ceiling: 1800
Heat Index: 61°   Visibility: 10mi
Dew Point: 59°   Wind: 16mph
Humidity: 94%   Direction: 160°SSE
Pressure: 29.5"   Gusts: 22mph
Location:  44.1404°N, 73.0493°W
Report Text: K6B0 241615Z AUTO 16014G19KT 10SM OVC018 16/15 A2950 RMK AO2 T01610152
Loading
Personal Weather Stations






























Interactive Weather Map New forecast layout! Learn more

10-Day Weather Forecast

Advertisements
Track Severe Weather on mobile